sensor_id;sensor_type;location;lat;lon;timestamp;P1;durP1;ratioP1;P2;durP2;ratioP2
17235;SDS011;8734;59.272;17.780;2023-01-10T00:01:50;19.50;;;8.40;;
17235;SDS011;8734;59.272;17.780;2023-01-10T00:04:18;19.63;;;7.73;;
17235;SDS011;8734;59.272;17.780;2023-01-10T00:06:46;23.43;;;8.67;;
17235;SDS011;8734;59.272;17.780;2023-01-10T00:09:16;19.07;;;7.83;;
17235;SDS011;8734;59.272;17.780;2023-01-10T00:11:44;22.43;;;7.60;;
17235;SDS011;8734;59.272;17.780;2023-01-10T00:14:31;19.30;;;6.80;;
17235;SDS011;8734;59.272;17.780;2023-01-10T00:17:00;18.33;;;6.93;;
17235;SDS011;8734;59.272;17.780;2023-01-10T00:19:29;22.37;;;7.27;;
17235;SDS011;8734;59.272;17.780;2023-01-10T00:21:57;20.53;;;7.17;;
17235;SDS011;8734;59.272;17.780;2023-01-10T00:24:40;18.70;;;7.87;;
17235;SDS011;8734;59.272;17.780;2023-01-10T00:27:09;16.83;;;7.60;;
17235;SDS011;8734;59.272;17.780;2023-01-10T00:29:42;18.00;;;7.17;;
17235;SDS011;8734;59.272;17.780;2023-01-10T00:32:12;19.93;;;6.83;;
17235;SDS011;8734;59.272;17.780;2023-01-10T00:34:40;14.23;;;6.40;;
17235;SDS011;8734;59.272;17.780;2023-01-10T00:37:08;16.17;;;6.60;;
17235;SDS011;8734;59.272;17.780;2023-01-10T00:39:37;17.37;;;6.67;;
17235;SDS011;8734;59.272;17.780;2023-01-10T00:42:08;17.20;;;6.63;;
17235;SDS011;8734;59.272;17.780;2023-01-10T00:44:54;15.43;;;6.63;;
17235;SDS011;8734;59.272;17.780;2023-01-10T00:47:22;14.53;;;6.77;;
17235;SDS011;8734;59.272;17.780;2023-01-10T00:49:50;18.00;;;7.27;;
17235;SDS011;8734;59.272;17.780;2023-01-10T00:52:19;14.73;;;6.33;;
17235;SDS011;8734;59.272;17.780;2023-01-10T00:54:50;17.40;;;6.50;;
17235;SDS011;8734;59.272;17.780;2023-01-10T00:57:18;15.50;;;6.10;;
17235;SDS011;8734;59.272;17.780;2023-01-10T00:59:46;16.53;;;5.93;;
17235;SDS011;8734;59.272;17.780;2023-01-10T01:02:15;16.33;;;6.60;;
17235;SDS011;8734;59.272;17.780;2023-01-10T01:04:44;12.23;;;5.70;;
17235;SDS011;8734;59.272;17.780;2023-01-10T01:07:12;15.67;;;6.90;;
17235;SDS011;8734;59.272;17.780;2023-01-10T01:09:41;12.77;;;5.63;;
17235;SDS011;8734;59.272;17.780;2023-01-10T01:12:24;11.20;;;5.13;;
17235;SDS011;8734;59.272;17.780;2023-01-10T01:14:53;12.77;;;6.13;;
17235;SDS011;8734;59.272;17.780;2023-01-10T01:17:21;11.87;;;6.03;;
17235;SDS011;8734;59.272;17.780;2023-01-10T01:19:49;13.37;;;5.53;;
17235;SDS011;8734;59.272;17.780;2023-01-10T01:22:18;11.23;;;5.43;;
17235;SDS011;8734;59.272;17.780;2023-01-10T01:24:46;11.87;;;4.90;;
17235;SDS011;8734;59.272;17.780;2023-01-10T01:27:15;13.13;;;5.17;;
17235;SDS011;8734;59.272;17.780;2023-01-10T01:29:45;13.97;;;5.30;;
17235;SDS011;8734;59.272;17.780;2023-01-10T01:32:13;12.77;;;5.13;;
17235;SDS011;8734;59.272;17.780;2023-01-10T01:34:42;11.37;;;5.10;;
17235;SDS011;8734;59.272;17.780;2023-01-10T01:37:10;11.80;;;4.67;;
17235;SDS011;8734;59.272;17.780;2023-01-10T01:39:38;17.17;;;5.87;;
17235;SDS011;8734;59.272;17.780;2023-01-10T01:42:11;11.57;;;5.03;;
17235;SDS011;8734;59.272;17.780;2023-01-10T01:47:45;12.40;;;5.10;;
17235;SDS011;8734;59.272;17.780;2023-01-10T01:50:17;11.37;;;5.30;;
17235;SDS011;8734;59.272;17.780;2023-01-10T01:52:49;8.47;;;4.33;;
17235;SDS011;8734;59.272;17.780;2023-01-10T01:55:20;10.13;;;4.77;;
17235;SDS011;8734;59.272;17.780;2023-01-10T01:57:52;11.77;;;4.97;;
17235;SDS011;8734;59.272;17.780;2023-01-10T02:00:22;10.03;;;4.80;;
17235;SDS011;8734;59.272;17.780;2023-01-10T02:02:53;10.50;;;4.33;;
17235;SDS011;8734;59.272;17.780;2023-01-10T02:05:28;8.27;;;3.93;;
17235;SDS011;8734;59.272;17.780;2023-01-10T02:07:59;10.43;;;4.73;;
17235;SDS011;8734;59.272;17.780;2023-01-10T02:10:30;7.17;;;3.53;;
17235;SDS011;8734;59.272;17.780;2023-01-10T02:13:05;11.43;;;4.30;;
17235;SDS011;8734;59.272;17.780;2023-01-10T02:15:38;9.60;;;4.07;;
17235;SDS011;8734;59.272;17.780;2023-01-10T02:18:08;9.97;;;3.60;;
17235;SDS011;8734;59.272;17.780;2023-01-10T02:20:38;10.40;;;3.97;;
17235;SDS011;8734;59.272;17.780;2023-01-10T02:26:36;10.37;;;3.30;;
17235;SDS011;8734;59.272;17.780;2023-01-10T02:29:40;7.87;;;3.53;;
17235;SDS011;8734;59.272;17.780;2023-01-10T02:32:33;6.37;;;3.20;;
17235;SDS011;8734;59.272;17.780;2023-01-10T02:35:24;6.67;;;3.40;;
17235;SDS011;8734;59.272;17.780;2023-01-10T02:38:03;7.27;;;3.40;;
17235;SDS011;8734;59.272;17.780;2023-01-10T02:40:38;7.33;;;3.23;;
17235;SDS011;8734;59.272;17.780;2023-01-10T02:43:16;5.57;;;3.10;;
17235;SDS011;8734;59.272;17.780;2023-01-10T02:45:49;4.47;;;2.93;;
17235;SDS011;8734;59.272;17.780;2023-01-10T02:48:22;6.83;;;3.00;;
17235;SDS011;8734;59.272;17.780;2023-01-10T02:50:52;5.00;;;2.90;;
17235;SDS011;8734;59.272;17.780;2023-01-10T02:53:25;6.47;;;3.27;;
17235;SDS011;8734;59.272;17.780;2023-01-10T02:58:55;6.93;;;2.47;;
17235;SDS011;8734;59.272;17.780;2023-01-10T03:01:41;5.43;;;2.80;;
17235;SDS011;8734;59.272;17.780;2023-01-10T03:04:19;5.40;;;2.73;;
17235;SDS011;8734;59.272;17.780;2023-01-10T03:06:57;4.47;;;2.33;;
17235;SDS011;8734;59.272;17.780;2023-01-10T03:09:38;3.93;;;2.50;;
17235;SDS011;8734;59.272;17.780;2023-01-10T03:12:18;3.90;;;2.17;;
17235;SDS011;8734;59.272;17.780;2023-01-10T03:14:50;4.40;;;2.20;;
17235;SDS011;8734;59.272;17.780;2023-01-10T03:17:20;5.20;;;2.43;;
17235;SDS011;8734;59.272;17.780;2023-01-10T03:19:53;3.90;;;2.00;;
17235;SDS011;8734;59.272;17.780;2023-01-10T03:22:25;5.33;;;2.83;;
17235;SDS011;8734;59.272;17.780;2023-01-10T03:24:58;7.40;;;2.40;;
17235;SDS011;8734;59.272;17.780;2023-01-10T03:27:28;6.83;;;2.00;;
17235;SDS011;8734;59.272;17.780;2023-01-10T03:30:05;3.13;;;1.83;;
17235;SDS011;8734;59.272;17.780;2023-01-10T03:32:43;3.17;;;1.90;;
17235;SDS011;8734;59.272;17.780;2023-01-10T03:35:13;7.50;;;2.23;;
17235;SDS011;8734;59.272;17.780;2023-01-10T03:37:43;4.63;;;1.90;;
17235;SDS011;8734;59.272;17.780;2023-01-10T03:40:22;3.77;;;2.13;;
17235;SDS011;8734;59.272;17.780;2023-01-10T03:42:56;4.70;;;2.00;;
17235;SDS011;8734;59.272;17.780;2023-01-10T03:45:48;4.47;;;2.23;;
17235;SDS011;8734;59.272;17.780;2023-01-10T03:48:21;3.50;;;2.10;;
17235;SDS011;8734;59.272;17.780;2023-01-10T03:50:55;8.27;;;2.00;;
17235;SDS011;8734;59.272;17.780;2023-01-10T03:53:25;2.83;;;1.83;;
17235;SDS011;8734;59.272;17.780;2023-01-10T03:55:53;3.63;;;2.47;;
17235;SDS011;8734;59.272;17.780;2023-01-10T03:58:22;3.40;;;2.13;;
17235;SDS011;8734;59.272;17.780;2023-01-10T04:00:50;5.57;;;2.67;;
17235;SDS011;8734;59.272;17.780;2023-01-10T04:03:19;3.90;;;1.90;;
17235;SDS011;8734;59.272;17.780;2023-01-10T04:05:47;5.80;;;2.57;;
17235;SDS011;8734;59.272;17.780;2023-01-10T04:08:17;6.87;;;2.63;;
17235;SDS011;8734;59.272;17.780;2023-01-10T04:10:47;5.37;;;2.53;;
17235;SDS011;8734;59.272;17.780;2023-01-10T04:13:15;5.83;;;2.80;;
17235;SDS011;8734;59.272;17.780;2023-01-10T04:15:43;5.77;;;2.57;;
17235;SDS011;8734;59.272;17.780;2023-01-10T04:18:12;5.33;;;2.47;;
17235;SDS011;8734;59.272;17.780;2023-01-10T04:20:41;7.03;;;2.90;;
17235;SDS011;8734;59.272;17.780;2023-01-10T04:23:09;6.53;;;2.83;;
17235;SDS011;8734;59.272;17.780;2023-01-10T04:25:39;7.67;;;2.87;;
17235;SDS011;8734;59.272;17.780;2023-01-10T04:28:07;6.17;;;2.97;;
17235;SDS011;8734;59.272;17.780;2023-01-10T04:30:36;5.30;;;2.57;;
17235;SDS011;8734;59.272;17.780;2023-01-10T04:33:04;12.97;;;3.27;;
17235;SDS011;8734;59.272;17.780;2023-01-10T04:35:33;9.50;;;3.40;;
17235;SDS011;8734;59.272;17.780;2023-01-10T04:38:01;8.03;;;2.97;;
17235;SDS011;8734;59.272;17.780;2023-01-10T04:40:29;7.73;;;3.50;;
17235;SDS011;8734;59.272;17.780;2023-01-10T04:43:00;11.33;;;3.67;;
17235;SDS011;8734;59.272;17.780;2023-01-10T04:45:28;9.27;;;3.60;;
17235;SDS011;8734;59.272;17.780;2023-01-10T04:47:56;9.40;;;3.17;;
17235;SDS011;8734;59.272;17.780;2023-01-10T04:50:26;11.63;;;3.60;;
17235;SDS011;8734;59.272;17.780;2023-01-10T04:52:55;7.73;;;3.47;;
17235;SDS011;8734;59.272;17.780;2023-01-10T04:55:23;7.63;;;3.67;;
17235;SDS011;8734;59.272;17.780;2023-01-10T04:57:51;9.60;;;3.50;;
17235;SDS011;8734;59.272;17.780;2023-01-10T05:00:21;9.03;;;3.40;;
17235;SDS011;8734;59.272;17.780;2023-01-10T05:02:53;11.63;;;3.80;;
17235;SDS011;8734;59.272;17.780;2023-01-10T05:05:23;10.87;;;3.57;;
17235;SDS011;8734;59.272;17.780;2023-01-10T05:07:51;10.90;;;3.83;;
17235;SDS011;8734;59.272;17.780;2023-01-10T05:10:20;7.53;;;3.43;;
17235;SDS011;8734;59.272;17.780;2023-01-10T05:12:48;5.97;;;3.20;;
17235;SDS011;8734;59.272;17.780;2023-01-10T05:15:17;11.10;;;4.00;;
17235;SDS011;8734;59.272;17.780;2023-01-10T05:17:47;12.90;;;4.37;;
17235;SDS011;8734;59.272;17.780;2023-01-10T05:20:17;9.57;;;4.00;;
17235;SDS011;8734;59.272;17.780;2023-01-10T05:22:45;9.53;;;3.53;;
17235;SDS011;8734;59.272;17.780;2023-01-10T05:25:14;9.27;;;3.57;;
17235;SDS011;8734;59.272;17.780;2023-01-10T05:27:43;17.67;;;3.90;;
17235;SDS011;8734;59.272;17.780;2023-01-10T05:30:11;8.50;;;3.13;;
17235;SDS011;8734;59.272;17.780;2023-01-10T05:32:40;12.37;;;3.60;;
17235;SDS011;8734;59.272;17.780;2023-01-10T05:35:10;9.23;;;3.07;;
17235;SDS011;8734;59.272;17.780;2023-01-10T05:37:38;12.60;;;3.50;;
17235;SDS011;8734;59.272;17.780;2023-01-10T05:40:07;7.80;;;3.17;;
17235;SDS011;8734;59.272;17.780;2023-01-10T05:42:36;7.70;;;3.30;;
17235;SDS011;8734;59.272;17.780;2023-01-10T05:45:05;8.37;;;3.57;;
17235;SDS011;8734;59.272;17.780;2023-01-10T05:47:34;7.47;;;3.70;;
17235;SDS011;8734;59.272;17.780;2023-01-10T05:50:02;9.67;;;3.40;;
17235;SDS011;8734;59.272;17.780;2023-01-10T05:52:32;12.40;;;3.80;;
17235;SDS011;8734;59.272;17.780;2023-01-10T05:55:00;9.07;;;3.70;;
17235;SDS011;8734;59.272;17.780;2023-01-10T05:57:29;7.13;;;2.83;;
17235;SDS011;8734;59.272;17.780;2023-01-10T05:59:57;6.73;;;3.30;;
17235;SDS011;8734;59.272;17.780;2023-01-10T06:02:25;15.43;;;4.00;;
17235;SDS011;8734;59.272;17.780;2023-01-10T06:04:54;11.77;;;3.80;;
17235;SDS011;8734;59.272;17.780;2023-01-10T06:07:23;13.23;;;3.73;;
17235;SDS011;8734;59.272;17.780;2023-01-10T06:09:52;10.87;;;3.97;;
17235;SDS011;8734;59.272;17.780;2023-01-10T06:12:21;13.67;;;4.03;;
17235;SDS011;8734;59.272;17.780;2023-01-10T06:14:49;8.03;;;3.37;;
17235;SDS011;8734;59.272;17.780;2023-01-10T06:17:17;15.60;;;3.90;;
17235;SDS011;8734;59.272;17.780;2023-01-10T06:19:46;48.50;;;4.67;;
17235;SDS011;8734;59.272;17.780;2023-01-10T06:22:15;20.43;;;4.33;;
17235;SDS011;8734;59.272;17.780;2023-01-10T06:24:43;12.50;;;3.83;;
17235;SDS011;8734;59.272;17.780;2023-01-10T06:27:13;9.37;;;3.60;;
17235;SDS011;8734;59.272;17.780;2023-01-10T06:29:42;8.90;;;3.90;;
17235;SDS011;8734;59.272;17.780;2023-01-10T06:32:10;11.97;;;4.50;;
17235;SDS011;8734;59.272;17.780;2023-01-10T06:34:38;12.17;;;4.77;;
17235;SDS011;8734;59.272;17.780;2023-01-10T06:37:06;14.30;;;4.30;;
17235;SDS011;8734;59.272;17.780;2023-01-10T06:39:35;14.13;;;4.47;;
17235;SDS011;8734;59.272;17.780;2023-01-10T06:42:05;17.63;;;5.30;;
17235;SDS011;8734;59.272;17.780;2023-01-10T06:44:35;13.93;;;5.57;;
17235;SDS011;8734;59.272;17.780;2023-01-10T06:47:03;29.70;;;6.07;;
17235;SDS011;8734;59.272;17.780;2023-01-10T06:49:31;18.70;;;7.07;;
17235;SDS011;8734;59.272;17.780;2023-01-10T06:52:00;24.30;;;5.40;;
17235;SDS011;8734;59.272;17.780;2023-01-10T06:54:28;19.83;;;7.30;;
17235;SDS011;8734;59.272;17.780;2023-01-10T06:56:57;14.93;;;6.07;;
17235;SDS011;8734;59.272;17.780;2023-01-10T06:59:25;14.57;;;6.17;;
17235;SDS011;8734;59.272;17.780;2023-01-10T07:01:55;20.33;;;7.10;;
17235;SDS011;8734;59.272;17.780;2023-01-10T07:04:24;21.97;;;7.83;;
17235;SDS011;8734;59.272;17.780;2023-01-10T07:06:52;27.43;;;7.30;;
17235;SDS011;8734;59.272;17.780;2023-01-10T07:09:21;26.70;;;9.07;;
17235;SDS011;8734;59.272;17.780;2023-01-10T07:11:49;10.70;;;3.90;;
17235;SDS011;8734;59.272;17.780;2023-01-10T07:14:17;18.17;;;7.33;;
17235;SDS011;8734;59.272;17.780;2023-01-10T07:16:46;17.47;;;6.53;;
17235;SDS011;8734;59.272;17.780;2023-01-10T07:19:16;21.07;;;7.97;;
17235;SDS011;8734;59.272;17.780;2023-01-10T07:21:45;20.80;;;8.67;;
17235;SDS011;8734;59.272;17.780;2023-01-10T07:24:13;24.80;;;7.83;;
17235;SDS011;8734;59.272;17.780;2023-01-10T07:26:42;12.57;;;5.00;;
17235;SDS011;8734;59.272;17.780;2023-01-10T07:29:10;20.03;;;7.37;;
17235;SDS011;8734;59.272;17.780;2023-01-10T07:31:38;16.77;;;6.07;;
17235;SDS011;8734;59.272;17.780;2023-01-10T07:34:07;14.43;;;5.23;;
17235;SDS011;8734;59.272;17.780;2023-01-10T07:36:36;9.87;;;4.67;;
17235;SDS011;8734;59.272;17.780;2023-01-10T07:39:04;11.93;;;5.63;;
17235;SDS011;8734;59.272;17.780;2023-01-10T07:41:33;12.07;;;5.63;;
17235;SDS011;8734;59.272;17.780;2023-01-10T07:44:01;9.27;;;4.47;;
17235;SDS011;8734;59.272;17.780;2023-01-10T07:46:29;12.60;;;5.20;;
17235;SDS011;8734;59.272;17.780;2023-01-10T07:48:58;9.77;;;4.47;;
17235;SDS011;8734;59.272;17.780;2023-01-10T07:51:26;11.57;;;5.27;;
17235;SDS011;8734;59.272;17.780;2023-01-10T07:53:56;9.93;;;4.67;;
17235;SDS011;8734;59.272;17.780;2023-01-10T07:56:24;11.07;;;5.17;;
17235;SDS011;8734;59.272;17.780;2023-01-10T07:58:53;12.80;;;5.23;;
17235;SDS011;8734;59.272;17.780;2023-01-10T08:01:21;11.50;;;5.67;;
17235;SDS011;8734;59.272;17.780;2023-01-10T08:03:51;9.67;;;5.27;;
17235;SDS011;8734;59.272;17.780;2023-01-10T08:06:19;6.00;;;3.17;;
17235;SDS011;8734;59.272;17.780;2023-01-10T08:08:47;9.13;;;4.57;;
17235;SDS011;8734;59.272;17.780;2023-01-10T08:11:18;10.73;;;4.93;;
17235;SDS011;8734;59.272;17.780;2023-01-10T08:13:46;12.97;;;5.43;;
17235;SDS011;8734;59.272;17.780;2023-01-10T08:16:14;11.37;;;5.87;;
17235;SDS011;8734;59.272;17.780;2023-01-10T08:18:43;11.47;;;5.13;;
17235;SDS011;8734;59.272;17.780;2023-01-10T08:21:12;11.23;;;5.40;;
17235;SDS011;8734;59.272;17.780;2023-01-10T08:23:40;10.43;;;5.53;;
17235;SDS011;8734;59.272;17.780;2023-01-10T08:26:09;8.83;;;4.90;;
17235;SDS011;8734;59.272;17.780;2023-01-10T08:28:39;12.83;;;4.87;;
17235;SDS011;8734;59.272;17.780;2023-01-10T08:31:07;12.43;;;5.40;;
17235;SDS011;8734;59.272;17.780;2023-01-10T08:33:37;12.67;;;5.13;;
17235;SDS011;8734;59.272;17.780;2023-01-10T08:36:12;11.33;;;5.10;;
17235;SDS011;8734;59.272;17.780;2023-01-10T08:38:42;10.47;;;5.70;;
17235;SDS011;8734;59.272;17.780;2023-01-10T08:41:10;11.30;;;5.20;;
17235;SDS011;8734;59.272;17.780;2023-01-10T08:43:41;12.83;;;5.87;;
17235;SDS011;8734;59.272;17.780;2023-01-10T08:46:09;11.07;;;5.37;;
17235;SDS011;8734;59.272;17.780;2023-01-10T08:48:38;9.93;;;5.23;;
17235;SDS011;8734;59.272;17.780;2023-01-10T08:51:07;11.60;;;5.63;;
17235;SDS011;8734;59.272;17.780;2023-01-10T08:53:37;20.80;;;6.30;;
17235;SDS011;8734;59.272;17.780;2023-01-10T08:56:06;11.43;;;5.70;;
17235;SDS011;8734;59.272;17.780;2023-01-10T08:58:35;13.37;;;5.67;;
17235;SDS011;8734;59.272;17.780;2023-01-10T09:01:06;13.47;;;5.63;;
17235;SDS011;8734;59.272;17.780;2023-01-10T09:03:37;13.53;;;6.03;;
17235;SDS011;8734;59.272;17.780;2023-01-10T09:06:06;14.37;;;6.73;;
17235;SDS011;8734;59.272;17.780;2023-01-10T09:08:35;14.80;;;6.20;;
17235;SDS011;8734;59.272;17.780;2023-01-10T09:11:04;21.60;;;7.53;;
17235;SDS011;8734;59.272;17.780;2023-01-10T09:13:33;25.90;;;7.03;;
17235;SDS011;8734;59.272;17.780;2023-01-10T09:16:01;18.70;;;6.57;;
17235;SDS011;8734;59.272;17.780;2023-01-10T09:18:31;17.47;;;7.33;;
17235;SDS011;8734;59.272;17.780;2023-01-10T09:21:00;12.87;;;5.80;;
17235;SDS011;8734;59.272;17.780;2023-01-10T09:23:29;15.13;;;7.07;;
17235;SDS011;8734;59.272;17.780;2023-01-10T09:25:58;18.70;;;7.40;;
17235;SDS011;8734;59.272;17.780;2023-01-10T09:28:28;18.60;;;7.10;;
17235;SDS011;8734;59.272;17.780;2023-01-10T09:30:56;18.53;;;6.33;;
17235;SDS011;8734;59.272;17.780;2023-01-10T09:33:26;11.03;;;5.40;;
17235;SDS011;8734;59.272;17.780;2023-01-10T09:36:12;15.17;;;6.10;;
17235;SDS011;8734;59.272;17.780;2023-01-10T09:38:41;10.87;;;6.00;;
17235;SDS011;8734;59.272;17.780;2023-01-10T09:41:30;14.03;;;5.97;;
17235;SDS011;8734;59.272;17.780;2023-01-10T09:44:24;15.13;;;6.43;;
17235;SDS011;8734;59.272;17.780;2023-01-10T09:47:04;15.03;;;7.03;;
17235;SDS011;8734;59.272;17.780;2023-01-10T09:49:50;12.37;;;5.90;;
17235;SDS011;8734;59.272;17.780;2023-01-10T09:52:27;16.00;;;5.83;;
17235;SDS011;8734;59.272;17.780;2023-01-10T09:55:00;13.47;;;6.03;;
17235;SDS011;8734;59.272;17.780;2023-01-10T09:57:37;13.20;;;5.57;;
17235;SDS011;8734;59.272;17.780;2023-01-10T10:00:05;13.30;;;5.87;;
17235;SDS011;8734;59.272;17.780;2023-01-10T10:02:37;13.43;;;5.33;;
17235;SDS011;8734;59.272;17.780;2023-01-10T10:05:10;12.63;;;5.87;;
17235;SDS011;8734;59.272;17.780;2023-01-10T10:07:46;11.20;;;5.17;;
17235;SDS011;8734;59.272;17.780;2023-01-10T10:10:21;7.20;;;3.47;;
17235;SDS011;8734;59.272;17.780;2023-01-10T10:12:57;15.47;;;5.93;;
17235;SDS011;8734;59.272;17.780;2023-01-10T10:15:41;11.57;;;4.57;;
17235;SDS011;8734;59.272;17.780;2023-01-10T10:18:17;13.53;;;5.07;;
17235;SDS011;8734;59.272;17.780;2023-01-10T10:20:56;14.27;;;5.30;;
17235;SDS011;8734;59.272;17.780;2023-01-10T10:23:34;12.23;;;5.73;;
17235;SDS011;8734;59.272;17.780;2023-01-10T10:26:27;13.50;;;4.87;;
17235;SDS011;8734;59.272;17.780;2023-01-10T10:32:12;10.27;;;4.90;;
17235;SDS011;8734;59.272;17.780;2023-01-10T10:34:51;13.37;;;5.67;;
17235;SDS011;8734;59.272;17.780;2023-01-10T10:37:25;22.27;;;5.33;;
17235;SDS011;8734;59.272;17.780;2023-01-10T10:40:00;11.47;;;4.10;;
17235;SDS011;8734;59.272;17.780;2023-01-10T10:42:32;15.27;;;5.53;;
17235;SDS011;8734;59.272;17.780;2023-01-10T10:45:04;16.33;;;5.17;;
17235;SDS011;8734;59.272;17.780;2023-01-10T10:47:35;10.23;;;5.73;;
17235;SDS011;8734;59.272;17.780;2023-01-10T10:50:07;15.80;;;4.90;;
17235;SDS011;8734;59.272;17.780;2023-01-10T10:52:45;10.43;;;5.10;;
17235;SDS011;8734;59.272;17.780;2023-01-10T10:55:16;16.30;;;5.33;;
17235;SDS011;8734;59.272;17.780;2023-01-10T10:57:48;16.37;;;5.67;;
17235;SDS011;8734;59.272;17.780;2023-01-10T11:00:26;12.93;;;4.77;;
17235;SDS011;8734;59.272;17.780;2023-01-10T11:02:56;13.30;;;5.60;;
17235;SDS011;8734;59.272;17.780;2023-01-10T11:05:31;10.90;;;6.10;;
17235;SDS011;8734;59.272;17.780;2023-01-10T11:08:03;11.60;;;5.43;;
17235;SDS011;8734;59.272;17.780;2023-01-10T11:10:37;11.97;;;5.50;;
17235;SDS011;8734;59.272;17.780;2023-01-10T11:13:12;15.87;;;6.77;;
17235;SDS011;8734;59.272;17.780;2023-01-10T11:15:44;10.30;;;5.07;;
17235;SDS011;8734;59.272;17.780;2023-01-10T11:18:14;18.10;;;5.70;;
17235;SDS011;8734;59.272;17.780;2023-01-10T11:20:50;13.93;;;4.83;;
17235;SDS011;8734;59.272;17.780;2023-01-10T11:23:27;18.13;;;5.57;;
17235;SDS011;8734;59.272;17.780;2023-01-10T11:26:06;24.73;;;5.60;;
17235;SDS011;8734;59.272;17.780;2023-01-10T11:28:36;16.87;;;6.33;;
17235;SDS011;8734;59.272;17.780;2023-01-10T11:31:05;16.00;;;6.17;;
17235;SDS011;8734;59.272;17.780;2023-01-10T11:33:33;12.70;;;6.30;;
17235;SDS011;8734;59.272;17.780;2023-01-10T11:36:03;13.87;;;6.50;;
17235;SDS011;8734;59.272;17.780;2023-01-10T11:38:33;16.50;;;6.47;;
17235;SDS011;8734;59.272;17.780;2023-01-10T11:41:03;13.20;;;7.60;;
17235;SDS011;8734;59.272;17.780;2023-01-10T11:43:49;20.57;;;6.30;;
17235;SDS011;8734;59.272;17.780;2023-01-10T11:46:18;15.27;;;6.03;;
17235;SDS011;8734;59.272;17.780;2023-01-10T11:48:51;19.10;;;6.87;;
17235;SDS011;8734;59.272;17.780;2023-01-10T11:51:35;14.87;;;5.87;;
17235;SDS011;8734;59.272;17.780;2023-01-10T11:54:06;21.80;;;6.80;;
17235;SDS011;8734;59.272;17.780;2023-01-10T11:56:40;19.80;;;5.90;;
17235;SDS011;8734;59.272;17.780;2023-01-10T11:59:10;18.67;;;7.30;;
17235;SDS011;8734;59.272;17.780;2023-01-10T12:01:42;17.67;;;7.77;;
17235;SDS011;8734;59.272;17.780;2023-01-10T12:04:14;22.27;;;8.07;;
17235;SDS011;8734;59.272;17.780;2023-01-10T12:06:44;16.83;;;6.53;;
17235;SDS011;8734;59.272;17.780;2023-01-10T12:12:02;20.37;;;7.87;;
17235;SDS011;8734;59.272;17.780;2023-01-10T12:14:32;20.10;;;8.00;;
17235;SDS011;8734;59.272;17.780;2023-01-10T12:17:02;17.87;;;7.70;;
17235;SDS011;8734;59.272;17.780;2023-01-10T12:19:30;18.97;;;6.40;;
17235;SDS011;8734;59.272;17.780;2023-01-10T12:22:01;20.63;;;7.47;;
17235;SDS011;8734;59.272;17.780;2023-01-10T12:24:32;19.20;;;6.93;;
17235;SDS011;8734;59.272;17.780;2023-01-10T12:27:04;21.90;;;7.87;;
17235;SDS011;8734;59.272;17.780;2023-01-10T12:29:37;23.67;;;7.87;;
17235;SDS011;8734;59.272;17.780;2023-01-10T12:32:12;21.33;;;6.80;;
17235;SDS011;8734;59.272;17.780;2023-01-10T12:34:48;14.70;;;6.50;;
17235;SDS011;8734;59.272;17.780;2023-01-10T12:37:25;16.70;;;6.30;;
17235;SDS011;8734;59.272;17.780;2023-01-10T12:39:59;19.63;;;6.43;;
17235;SDS011;8734;59.272;17.780;2023-01-10T12:42:35;14.70;;;6.30;;
17235;SDS011;8734;59.272;17.780;2023-01-10T12:45:31;19.57;;;6.77;;
17235;SDS011;8734;59.272;17.780;2023-01-10T12:48:04;14.07;;;6.03;;
17235;SDS011;8734;59.272;17.780;2023-01-10T12:50:42;18.77;;;7.17;;
17235;SDS011;8734;59.272;17.780;2023-01-10T12:53:22;15.07;;;6.60;;
17235;SDS011;8734;59.272;17.780;2023-01-10T12:55:56;10.73;;;4.93;;
17235;SDS011;8734;59.272;17.780;2023-01-10T12:58:33;20.17;;;6.93;;
17235;SDS011;8734;59.272;17.780;2023-01-10T13:01:09;15.50;;;6.53;;
17235;SDS011;8734;59.272;17.780;2023-01-10T13:03:41;16.03;;;6.80;;
17235;SDS011;8734;59.272;17.780;2023-01-10T13:06:15;13.90;;;6.60;;
17235;SDS011;8734;59.272;17.780;2023-01-10T13:08:57;19.70;;;6.80;;
17235;SDS011;8734;59.272;17.780;2023-01-10T13:11:27;16.70;;;6.23;;
17235;SDS011;8734;59.272;17.780;2023-01-10T13:14:01;15.23;;;5.40;;
17235;SDS011;8734;59.272;17.780;2023-01-10T13:16:35;17.87;;;4.30;;
17235;SDS011;8734;59.272;17.780;2023-01-10T13:19:22;6.37;;;4.13;;
17235;SDS011;8734;59.272;17.780;2023-01-10T13:24:53;14.07;;;3.60;;
17235;SDS011;8734;59.272;17.780;2023-01-10T13:27:24;5.87;;;3.87;;
17235;SDS011;8734;59.272;17.780;2023-01-10T13:29:58;12.60;;;3.97;;
17235;SDS011;8734;59.272;17.780;2023-01-10T13:32:28;12.83;;;4.07;;
17235;SDS011;8734;59.272;17.780;2023-01-10T13:35:08;8.20;;;3.60;;
17235;SDS011;8734;59.272;17.780;2023-01-10T13:37:41;7.40;;;3.47;;
17235;SDS011;8734;59.272;17.780;2023-01-10T13:40:16;8.13;;;3.67;;
17235;SDS011;8734;59.272;17.780;2023-01-10T13:52:27;7.27;;;2.67;;
17235;SDS011;8734;59.272;17.780;2023-01-10T13:54:57;7.07;;;3.50;;
17235;SDS011;8734;59.272;17.780;2023-01-10T13:57:48;10.97;;;3.33;;
17235;SDS011;8734;59.272;17.780;2023-01-10T14:00:25;5.90;;;3.40;;
17235;SDS011;8734;59.272;17.780;2023-01-10T14:03:36;8.23;;;3.10;;
17235;SDS011;8734;59.272;17.780;2023-01-10T14:06:10;7.13;;;3.30;;
17235;SDS011;8734;59.272;17.780;2023-01-10T14:08:46;6.03;;;3.23;;
17235;SDS011;8734;59.272;17.780;2023-01-10T14:11:17;11.80;;;3.27;;
17235;SDS011;8734;59.272;17.780;2023-01-10T14:13:48;7.83;;;2.83;;
17235;SDS011;8734;59.272;17.780;2023-01-10T14:16:26;9.13;;;2.87;;
17235;SDS011;8734;59.272;17.780;2023-01-10T14:19:00;6.93;;;2.83;;
17235;SDS011;8734;59.272;17.780;2023-01-10T14:21:34;8.50;;;2.30;;
17235;SDS011;8734;59.272;17.780;2023-01-10T14:24:17;12.20;;;3.17;;
17235;SDS011;8734;59.272;17.780;2023-01-10T14:26:54;7.37;;;2.67;;
17235;SDS011;8734;59.272;17.780;2023-01-10T14:29:26;5.07;;;2.10;;
17235;SDS011;8734;59.272;17.780;2023-01-10T14:31:58;7.13;;;2.90;;
17235;SDS011;8734;59.272;17.780;2023-01-10T14:34:27;6.80;;;2.37;;
17235;SDS011;8734;59.272;17.780;2023-01-10T14:36:59;7.37;;;2.53;;
17235;SDS011;8734;59.272;17.780;2023-01-10T14:39:33;7.97;;;2.70;;
17235;SDS011;8734;59.272;17.780;2023-01-10T14:42:02;5.77;;;2.80;;
17235;SDS011;8734;59.272;17.780;2023-01-10T14:44:36;8.20;;;2.90;;
17235;SDS011;8734;59.272;17.780;2023-01-10T14:47:25;4.70;;;2.33;;
17235;SDS011;8734;59.272;17.780;2023-01-10T14:49:55;6.33;;;2.23;;
17235;SDS011;8734;59.272;17.780;2023-01-10T14:52:27;12.50;;;2.60;;
17235;SDS011;8734;59.272;17.780;2023-01-10T14:55:01;12.97;;;2.30;;
17235;SDS011;8734;59.272;17.780;2023-01-10T14:57:32;7.90;;;2.30;;
17235;SDS011;8734;59.272;17.780;2023-01-10T15:00:02;9.10;;;2.97;;
17235;SDS011;8734;59.272;17.780;2023-01-10T15:02:32;4.67;;;2.00;;
17235;SDS011;8734;59.272;17.780;2023-01-10T15:05:05;5.83;;;2.30;;
17235;SDS011;8734;59.272;17.780;2023-01-10T15:07:40;9.63;;;2.40;;
17235;SDS011;8734;59.272;17.780;2023-01-10T15:10:16;6.63;;;2.50;;
17235;SDS011;8734;59.272;17.780;2023-01-10T15:12:48;9.87;;;2.43;;
17235;SDS011;8734;59.272;17.780;2023-01-10T15:15:21;5.20;;;2.33;;
17235;SDS011;8734;59.272;17.780;2023-01-10T15:17:54;4.63;;;1.83;;
17235;SDS011;8734;59.272;17.780;2023-01-10T15:20:24;6.23;;;2.30;;
17235;SDS011;8734;59.272;17.780;2023-01-10T15:22:55;4.70;;;2.13;;
17235;SDS011;8734;59.272;17.780;2023-01-10T15:25:27;7.53;;;2.20;;
17235;SDS011;8734;59.272;17.780;2023-01-10T15:27:57;7.73;;;2.23;;
17235;SDS011;8734;59.272;17.780;2023-01-10T15:30:29;5.00;;;2.20;;
17235;SDS011;8734;59.272;17.780;2023-01-10T15:33:03;6.33;;;1.93;;
17235;SDS011;8734;59.272;17.780;2023-01-10T15:35:36;3.37;;;1.77;;